METAR AND TAF INFORMATION
METAR FOR LFRV
ADDS - METARS form results

(1257 UTC 13 December 2018)
Data provider http://aviationweather.gov/metar/data/
 
METAR text: LFRV 131230Z AUTO 07016KT 6000 -RA FEW007 OVC054 02/01 Q1007
Conditions at: LFRV (VANNES/MEUCON , FR) observed 1230 UTC 13 December 2018
Temperature: 2.0°C (36°F)
Dewpoint: 1.0°C (34°F) [RH = 93%]
Pressure (altimeter): 29.73 inches Hg (1007.0 mb)
Winds: from the ENE (70 degrees) at 18 MPH (16 knots; 8.2 m/s)
Visibility: 4 miles ( 6 km)
Ceiling: 5400 feet AGL
Clouds: few clouds at 700 feet AGL
overcast cloud deck at 5400 feet AGL
Weather: -RA  (light rain)

METAR text: LFRV 131200Z AUTO 07013KT 6000 -RA FEW005 OVC054 02/01 Q1007
Conditions at: LFRV (VANNES/MEUCON , FR) observed 1200 UTC 13 December 2018
Temperature: 2.0°C (36°F)
Dewpoint: 1.0°C (34°F) [RH = 93%]
Pressure (altimeter): 29.73 inches Hg (1007.0 mb)
Winds: from the ENE (70 degrees) at 15 MPH (13 knots; 6.7 m/s)
Visibility: 4 miles ( 6 km)
Ceiling: 5400 feet AGL
Clouds: few clouds at 500 feet AGL
overcast cloud deck at 5400 feet AGL
Weather: -RA  (light rain)

 AIRPORT MAP

 RUNWAY INFORMATION
Runway 04 Runway length 5020 ft Runway width 148 ft
Runway elevation 429 ft Runway displaced threshold 0 ft Runway heading 39
Runway 22 Runway length 5020 ft Runway width 148 ft
Runway elevation 437 ft Runway displaced threshold 0 ft Runway heading 219
Runway 08 Runway length 3363 ft Runway width 197 ft
Runway elevation 433 ft Runway displaced threshold 328 ft Runway heading 82
Runway 26 Runway length 3363 ft Runway width 197 ft
Runway elevation 440 ft Runway displaced threshold 0 ft Runway heading 262

 AIRPORT FREQUENCIES
Type TWR Name VANNES TWR Frequency 122.6 MHZ

 AIRPORT NEAR NAVIGATION AIDS



Powered by Virtual Airlines Manager [v2.6.2]